createdAt,value
2017-06-24T00:01:14.973Z,23.31
2017-06-24T00:02:14.902Z,23.31
2017-06-24T00:03:14.542Z,23.28
2017-06-24T00:04:14.778Z,23.28
2017-06-24T00:05:14.412Z,23.27
2017-06-24T00:06:14.352Z,23.31
2017-06-24T00:07:14.591Z,23.27
2017-06-24T00:08:14.527Z,23.34
2017-06-24T00:09:14.468Z,23.31
2017-06-24T00:10:14.412Z,23.37
2017-06-24T00:11:14.342Z,23.32
2017-06-24T00:12:14.281Z,23.34
2017-06-24T00:13:14.224Z,23.31
2017-06-24T00:14:14.168Z,23.28
2017-06-24T00:15:14.100Z,23.36
2017-06-24T00:16:14.033Z,23.28
2017-06-24T00:17:13.970Z,23.39
2017-06-24T00:18:13.913Z,23.28
2017-06-24T00:19:13.848Z,23.31
2017-06-24T00:20:13.787Z,23.34
2017-06-24T00:21:13.727Z,23.32
2017-06-24T00:22:13.665Z,23.41
2017-06-24T00:23:13.606Z,23.32
2017-06-24T00:24:13.539Z,23.39
2017-06-24T00:25:13.475Z,23.31
2017-06-24T00:26:13.415Z,23.37
2017-06-24T00:27:13.351Z,23.32
2017-06-24T00:28:13.291Z,23.28
2017-06-24T00:29:12.932Z,23.27
2017-06-24T00:30:13.168Z,23.32
2017-06-24T00:31:13.109Z,23.36
2017-06-24T00:32:13.041Z,23.28
2017-06-24T00:33:12.981Z,23.32
2017-06-24T00:34:12.617Z,23.37
2017-06-24T00:35:12.858Z,23.36
2017-06-24T00:36:12.797Z,23.34
2017-06-24T00:37:12.732Z,23.28
2017-06-24T00:38:12.686Z,23.36
2017-06-24T00:39:12.611Z,23.31
2017-06-24T00:40:12.551Z,23.27
2017-06-24T00:41:11.882Z,23.27
2017-06-24T00:42:12.424Z,23.37
2017-06-24T00:43:12.064Z,23.27
2017-06-24T00:44:12.300Z,23.28
2017-06-24T00:45:12.239Z,23.27
2017-06-24T00:46:12.176Z,23.28
2017-06-24T00:47:12.116Z,23.25
2017-06-24T00:48:12.056Z,23.32
2017-06-24T00:49:11.988Z,23.28
2017-06-24T00:50:11.879Z,23.37
2017-06-24T00:51:11.566Z,23.27
2017-06-24T00:52:11.803Z,23.31
2017-06-24T00:53:11.441Z,23.37
2017-06-24T00:54:11.679Z,23.39
2017-06-24T00:55:11.778Z,23.37
2017-06-24T00:56:11.558Z,23.27
2017-06-24T00:57:11.499Z,23.27
2017-06-24T00:58:11.435Z,23.39
2017-06-24T00:59:11.369Z,23.37
2017-06-24T01:00:11.311Z,23.28
2017-06-24T01:01:10.947Z,23.27
2017-06-24T01:02:11.185Z,23.4
2017-06-24T01:03:11.129Z,23.34
2017-06-24T01:04:11.061Z,23.31
2017-06-24T01:05:11.001Z,23.31
2017-06-24T01:06:10.940Z,23.37
2017-06-24T01:07:10.874Z,23.34
2017-06-24T01:08:10.832Z,23.32
2017-06-24T01:09:10.757Z,23.36
2017-06-24T01:10:10.689Z,23.32
2017-06-24T01:11:10.632Z,23.36
2017-06-24T01:12:10.572Z,23.36
2017-06-24T01:13:10.507Z,23.37
2017-06-24T01:14:10.440Z,23.37
2017-06-24T01:15:10.381Z,23.37
2017-06-24T01:16:10.320Z,23.32
2017-06-24T01:17:10.258Z,23.37
2017-06-24T01:18:10.195Z,23.32
2017-06-24T01:19:10.136Z,23.31
2017-06-24T01:20:10.070Z,23.36
2017-06-24T01:21:10.010Z,23.34
2017-06-24T01:22:09.953Z,23.31
2017-06-24T01:23:09.588Z,23.37
2017-06-24T01:24:09.826Z,23.36
2017-06-24T01:25:09.762Z,23.31
2017-06-24T01:26:09.700Z,23.25
2017-06-24T01:27:09.639Z,23.31
2017-06-24T01:28:09.272Z,23.37
2017-06-24T01:29:09.516Z,23.32
2017-06-24T01:30:09.455Z,23.36
2017-06-24T01:31:09.393Z,23.32
2017-06-24T01:32:09.332Z,23.25
2017-06-24T01:33:09.265Z,23.36
2017-06-24T01:34:09.206Z,23.25
2017-06-24T01:35:09.144Z,23.36
2017-06-24T01:36:08.782Z,23.32
2017-06-24T01:37:09.020Z,23.36
2017-06-24T01:38:08.961Z,23.27
2017-06-24T01:39:08.897Z,23.37
2017-06-24T01:40:08.839Z,23.32
2017-06-24T01:41:08.771Z,23.36
2017-06-24T01:42:08.711Z,23.34
2017-06-24T01:43:08.653Z,23.27
2017-06-24T01:44:08.585Z,23.31
2017-06-24T01:45:08.525Z,23.34
2017-06-24T01:46:08.161Z,23.27
2017-06-24T01:47:08.400Z,23.32
2017-06-24T01:48:08.344Z,23.32
2017-06-24T01:49:08.278Z,23.27
2017-06-24T01:50:08.215Z,23.27
2017-06-24T01:51:07.853Z,23.36
2017-06-24T01:52:07.790Z,23.32
2017-06-24T01:53:08.034Z,23.27
2017-06-24T01:54:07.983Z,23.32
2017-06-24T01:55:07.908Z,23.32
2017-06-24T01:56:07.844Z,23.28
2017-06-24T01:57:07.782Z,23.39
2017-06-24T01:58:07.718Z,23.34
2017-06-24T01:59:07.658Z,23.31
2017-06-24T02:00:07.302Z,23.27
2017-06-24T02:01:07.540Z,23.24
2017-06-24T02:02:07.474Z,23.34
2017-06-24T02:03:07.410Z,23.32
2017-06-24T02:04:07.347Z,23.24
2017-06-24T02:05:07.288Z,23.24
2017-06-24T02:06:07.227Z,23.23
2017-06-24T02:07:07.161Z,23.28
2017-06-24T02:08:06.801Z,23.27
2017-06-24T02:09:07.038Z,23.36
2017-06-24T02:10:06.977Z,23.27
2017-06-24T02:11:06.919Z,23.32
2017-06-24T02:12:06.854Z,23.37
2017-06-24T02:13:06.790Z,23.27
2017-06-24T02:14:06.739Z,23.28
2017-06-24T02:15:06.671Z,23.25
2017-06-24T02:16:06.604Z,23.32
2017-06-24T02:17:06.538Z,23.25
2017-06-24T02:18:06.180Z,23.27
2017-06-24T02:19:06.418Z,23.24
2017-06-24T02:20:06.457Z,23.27
2017-06-24T02:21:06.297Z,23.27
2017-06-24T02:22:06.233Z,23.28
2017-06-24T02:23:06.176Z,23.24
2017-06-24T02:24:06.110Z,23.24
2017-06-24T02:25:06.047Z,23.31
2017-06-24T02:26:05.988Z,23.27
2017-06-24T02:27:05.621Z,23.25
2017-06-24T02:28:05.864Z,23.36
2017-06-24T02:29:05.802Z,23.39
2017-06-24T02:30:05.437Z,23.24
2017-06-24T02:31:05.681Z,23.28
2017-06-24T02:32:05.322Z,23.24
2017-06-24T02:33:05.554Z,23.24
2017-06-24T02:34:05.492Z,23.34
2017-06-24T02:35:05.430Z,23.34
2017-06-24T02:36:05.370Z,23.32
2017-06-24T02:37:05.302Z,23.41
2017-06-24T02:38:05.245Z,23.27
2017-06-24T02:39:05.179Z,23.28
2017-06-24T02:40:05.118Z,23.24
2017-06-24T02:41:05.158Z,23.27
2017-06-24T02:42:04.988Z,23.28
2017-06-24T02:43:04.931Z,23.2
2017-06-24T02:44:04.873Z,23.2
2017-06-24T02:45:04.815Z,23.27
2017-06-24T02:46:04.997Z,23.27
2017-06-24T02:47:04.685Z,23.25
2017-06-24T02:48:04.622Z,23.2
2017-06-24T02:49:04.560Z,23.23
2017-06-24T02:50:04.651Z,23.21
2017-06-24T02:51:04.439Z,23.31
2017-06-24T02:52:04.376Z,23.25
2017-06-24T02:53:04.010Z,23.25
2017-06-24T02:54:03.949Z,23.27
2017-06-24T02:55:03.885Z,23.28
2017-06-24T02:56:04.125Z,23.24
2017-06-24T02:57:04.068Z,23.23
2017-06-24T02:58:04.001Z,23.24
2017-06-24T02:59:03.968Z,23.28
2017-06-24T03:00:03.879Z,23.28
2017-06-24T03:01:03.817Z,23.23
2017-06-24T03:02:03.753Z,23.21
2017-06-24T03:03:03.706Z,23.21
2017-06-24T03:04:03.629Z,23.21
2017-06-24T03:05:03.570Z,23.27
2017-06-24T03:06:03.201Z,23.21
2017-06-24T03:07:03.444Z,23.25
2017-06-24T03:08:03.408Z,23.24
2017-06-24T03:09:03.018Z,23.25
2017-06-24T03:10:03.260Z,23.24
2017-06-24T03:11:03.199Z,23.28
2017-06-24T03:12:03.137Z,23.24
2017-06-24T03:13:02.776Z,23.18
2017-06-24T03:14:03.013Z,23.21
2017-06-24T03:15:02.950Z,23.23
2017-06-24T03:16:02.892Z,23.37
2017-06-24T03:17:02.526Z,23.25
2017-06-24T03:18:02.759Z,23.25
2017-06-24T03:19:02.701Z,23.18
2017-06-24T03:20:02.888Z,23.17
2017-06-24T03:21:02.581Z,23.21
2017-06-24T03:22:02.519Z,23.2
2017-06-24T03:23:02.472Z,23.21
2017-06-24T03:24:02.397Z,23.23
2017-06-24T03:25:02.029Z,23.23
2017-06-24T03:26:02.267Z,23.28
2017-06-24T03:27:02.204Z,23.23
2017-06-24T03:28:02.142Z,23.21
2017-06-24T03:29:01.780Z,23.25
2017-06-24T03:30:02.020Z,23.25
2017-06-24T03:31:01.961Z,23.21
2017-06-24T03:32:01.930Z,23.24
2017-06-24T03:33:01.833Z,23.27
2017-06-24T03:34:01.771Z,23.25
2017-06-24T03:35:01.709Z,23.2
2017-06-24T03:36:01.651Z,23.17
2017-06-24T03:37:01.589Z,23.24
2017-06-24T03:38:01.527Z,23.27
2017-06-24T03:39:01.463Z,23.28
2017-06-24T03:40:01.401Z,23.21
2017-06-24T03:41:01.656Z,23.24
2017-06-24T03:42:01.290Z,23.18
2017-06-24T03:43:01.213Z,23.27
2017-06-24T03:44:01.160Z,23.18
2017-06-24T03:45:01.099Z,23.25
2017-06-24T03:46:01.027Z,23.2
2017-06-24T03:47:00.976Z,23.23
2017-06-24T03:48:00.907Z,23.27
2017-06-24T03:49:00.541Z,23.25
2017-06-24T03:50:00.780Z,23.2
2017-06-24T03:51:00.920Z,23.23
2017-06-24T03:52:00.658Z,23.18
2017-06-24T03:53:00.595Z,23.24
2017-06-24T03:54:00.531Z,23.21
2017-06-24T03:55:00.471Z,23.23
2017-06-24T03:56:00.411Z,23.12
2017-06-24T03:57:00.346Z,23.21
2017-06-24T03:58:00.286Z,23.18
2017-06-24T03:59:00.235Z,23.13
2017-06-24T04:00:00.163Z,23.2
2017-06-24T04:01:00.107Z,23.18
2017-06-24T04:02:00.041Z,23.15
2017-06-24T04:02:59.972Z,23.1
2017-06-24T04:03:59.913Z,23.09
2017-06-24T04:04:59.851Z,23.18
2017-06-24T04:05:59.789Z,23.17
2017-06-24T04:06:59.724Z,23.15
2017-06-24T04:07:59.663Z,23.15
2017-06-24T04:08:59.298Z,23.12
2017-06-24T04:09:59.238Z,23.05
2017-06-24T04:10:59.480Z,23.12
2017-06-24T04:11:59.414Z,23.02
2017-06-24T04:12:59.047Z,23.03
2017-06-24T04:13:59.293Z,23.05
2017-06-24T04:14:59.231Z,23.06
2017-06-24T04:15:59.173Z,23.05
2017-06-24T04:16:59.101Z,23.05
2017-06-24T04:17:59.039Z,23.06
2017-06-24T04:18:58.977Z,23.03
2017-06-24T04:19:58.917Z,23.06
2017-06-24T04:20:58.857Z,23.05
2017-06-24T04:21:58.806Z,23.02
2017-06-24T04:22:58.732Z,23.03
2017-06-24T04:23:58.670Z,22.99
2017-06-24T04:24:58.605Z,22.94
2017-06-24T04:25:58.240Z,22.98
2017-06-24T04:26:58.480Z,22.93
2017-06-24T04:27:58.416Z,23
2017-06-24T04:28:58.352Z,22.98
2017-06-24T04:29:58.291Z,23
2017-06-24T04:30:58.228Z,22.91
2017-06-24T04:31:58.171Z,22.96
2017-06-24T04:32:58.108Z,22.94
2017-06-24T04:33:57.741Z,23
2017-06-24T04:34:57.679Z,22.99
2017-06-24T04:35:57.922Z,22.88
2017-06-24T04:36:57.555Z,22.85
2017-06-24T04:37:57.799Z,22.98
2017-06-24T04:38:57.430Z,22.84
2017-06-24T04:39:57.669Z,22.87
2017-06-24T04:40:57.607Z,22.9
2017-06-24T04:41:57.549Z,22.93
2017-06-24T04:42:57.483Z,22.9
2017-06-24T04:43:57.418Z,22.81
2017-06-24T04:44:57.358Z,22.88
2017-06-24T04:45:57.296Z,22.93
2017-06-24T04:46:57.234Z,22.88
2017-06-24T04:47:57.174Z,22.83
2017-06-24T04:48:57.106Z,22.98
2017-06-24T04:49:56.745Z,22.91
2017-06-24T04:50:56.980Z,22.93
2017-06-24T04:51:56.631Z,22.84
2017-06-24T04:52:56.857Z,22.81
2017-06-24T04:53:56.795Z,22.91
2017-06-24T04:54:56.737Z,22.81
2017-06-24T04:55:56.674Z,22.81
2017-06-24T04:56:56.611Z,22.8
2017-06-24T04:57:56.544Z,22.78
2017-06-24T04:58:56.488Z,22.85
2017-06-24T04:59:56.420Z,22.81
2017-06-24T05:00:56.360Z,22.85
2017-06-24T05:01:55.998Z,22.84
2017-06-24T05:02:56.232Z,22.87
2017-06-24T05:03:56.171Z,22.78
2017-06-24T05:04:56.111Z,22.85
2017-06-24T05:05:55.895Z,22.73
2017-06-24T05:06:55.979Z,22.78
2017-06-24T05:07:55.923Z,22.8
2017-06-24T05:08:55.862Z,22.73
2017-06-24T05:09:55.494Z,22.72
2017-06-24T05:10:56.084Z,22.76
2017-06-24T05:11:55.671Z,22.75
2017-06-24T05:12:55.608Z,22.76
2017-06-24T05:13:55.544Z,22.75
2017-06-24T05:14:55.483Z,22.7
2017-06-24T05:15:55.569Z,22.84
2017-06-24T05:16:55.355Z,22.73
2017-06-24T05:17:55.292Z,22.78
2017-06-24T05:18:55.232Z,22.73
2017-06-24T05:19:54.891Z,22.84
2017-06-24T05:20:55.105Z,22.78
2017-06-24T05:21:55.044Z,22.81
2017-06-24T05:22:54.985Z,22.78
2017-06-24T05:23:54.922Z,22.75
2017-06-24T05:24:54.859Z,22.78
2017-06-24T05:25:54.894Z,22.75
2017-06-24T05:26:55.930Z,22.72
2017-06-24T05:27:54.669Z,22.8
2017-06-24T05:28:54.606Z,22.76
2017-06-24T05:29:54.238Z,22.78
2017-06-24T05:31:54.417Z,22.66
2017-06-24T05:32:54.358Z,22.73
2017-06-24T05:33:54.294Z,22.62
2017-06-24T05:34:54.227Z,22.63
2017-06-24T05:35:54.171Z,22.75
2017-06-24T05:36:54.104Z,22.63
2017-06-24T05:37:54.042Z,22.7
2017-06-24T05:38:53.679Z,22.62
2017-06-24T05:39:53.918Z,22.69
2017-06-24T05:40:53.852Z,22.69
2017-06-24T05:41:53.788Z,22.69
2017-06-24T05:42:53.726Z,22.66
2017-06-24T05:43:53.674Z,22.66
2017-06-24T05:44:53.306Z,22.66
2017-06-24T05:45:53.541Z,22.62
2017-06-24T05:46:53.479Z,22.63
2017-06-24T05:47:53.412Z,22.65
2017-06-24T05:48:53.348Z,22.55
2017-06-24T05:49:53.291Z,22.63
2017-06-24T05:50:53.228Z,22.6
2017-06-24T05:51:53.015Z,22.66
2017-06-24T05:52:52.800Z,22.68
2017-06-24T05:53:53.038Z,22.63
2017-06-24T05:54:52.671Z,22.59
2017-06-24T05:55:52.611Z,22.53
2017-06-24T05:56:52.861Z,22.51
2017-06-24T05:57:52.787Z,22.66
2017-06-24T05:58:52.726Z,22.66
2017-06-24T05:59:52.663Z,22.55
2017-06-24T06:00:52.450Z,22.59
2017-06-24T06:01:52.537Z,22.55
2017-06-24T06:02:52.476Z,22.6
2017-06-24T06:03:52.431Z,22.53
2017-06-24T06:04:52.359Z,22.65
2017-06-24T06:05:52.535Z,22.59
2017-06-24T06:06:51.927Z,22.55
2017-06-24T06:07:52.160Z,22.54
2017-06-24T06:08:52.099Z,22.59
2017-06-24T06:09:52.034Z,22.57
2017-06-24T06:10:52.104Z,22.57
2017-06-24T06:11:51.908Z,22.53
2017-06-24T06:12:51.846Z,22.57
2017-06-24T06:13:51.778Z,22.57
2017-06-24T06:14:51.721Z,22.51
2017-06-24T06:15:51.906Z,22.54
2017-06-24T06:16:51.595Z,22.51
2017-06-24T06:17:51.533Z,22.55
2017-06-24T06:18:51.178Z,22.55
2017-06-24T06:19:51.404Z,22.55
2017-06-24T06:20:51.344Z,22.45
2017-06-24T06:21:51.280Z,22.55
2017-06-24T06:22:51.219Z,22.51
2017-06-24T06:23:51.155Z,22.51
2017-06-24T06:24:51.091Z,22.48
2017-06-24T06:25:51.028Z,22.53
2017-06-24T06:26:50.997Z,22.51
2017-06-24T06:27:50.603Z,22.5
2017-06-24T06:28:50.546Z,22.44
2017-06-24T06:29:50.780Z,22.53
2017-06-24T06:30:50.716Z,22.48
2017-06-24T06:31:50.655Z,22.5
2017-06-24T06:32:50.290Z,22.44
2017-06-24T06:33:50.226Z,22.41
2017-06-24T06:34:50.162Z,22.48
2017-06-24T06:35:50.400Z,22.44
2017-06-24T06:36:50.646Z,22.5
2017-06-24T06:37:50.278Z,22.48
2017-06-24T06:38:50.212Z,22.5
2017-06-24T06:39:49.857Z,22.47
2017-06-24T06:40:50.087Z,22.53
2017-06-24T06:41:50.020Z,22.43
2017-06-24T06:42:49.962Z,22.43
2017-06-24T06:43:49.893Z,22.47
2017-06-24T06:44:49.836Z,22.45
2017-06-24T06:45:49.923Z,22.44
2017-06-24T06:46:49.712Z,22.43
2017-06-24T06:47:49.642Z,22.41
2017-06-24T06:48:49.580Z,22.48
2017-06-24T06:49:49.517Z,22.43
2017-06-24T06:50:49.170Z,22.45
2017-06-24T06:51:49.396Z,22.43
2017-06-24T06:52:49.331Z,22.39
2017-06-24T06:53:49.266Z,22.47
2017-06-24T06:54:49.204Z,22.39
2017-06-24T06:55:49.293Z,22.36
2017-06-24T06:56:48.779Z,22.39
2017-06-24T06:57:49.022Z,22.41
2017-06-24T06:58:48.954Z,22.45
2017-06-24T06:59:48.892Z,22.41
2017-06-24T07:00:49.363Z,22.35
2017-06-24T07:01:48.759Z,22.38
2017-06-24T07:02:48.705Z,22.36
2017-06-24T07:03:48.643Z,22.38
2017-06-24T07:04:48.578Z,22.33
2017-06-24T07:05:48.210Z,22.36
2017-06-24T07:06:48.453Z,22.36
2017-06-24T07:07:48.387Z,22.43
2017-06-24T07:08:48.321Z,22.35
2017-06-24T07:09:48.269Z,22.43
2017-06-24T07:10:48.197Z,22.35
2017-06-24T07:11:47.839Z,22.33
2017-06-24T07:12:48.068Z,22.38
2017-06-24T07:13:48.007Z,22.38
2017-06-24T07:14:47.948Z,22.41
2017-06-24T07:15:47.581Z,22.32
2017-06-24T07:16:47.821Z,22.36
2017-06-24T07:17:47.757Z,22.38
2017-06-24T07:18:47.692Z,22.43
2017-06-24T07:19:47.629Z,22.35
2017-06-24T07:20:47.276Z,22.44
2017-06-24T07:21:47.512Z,22.39
2017-06-24T07:22:47.450Z,22.33
2017-06-24T07:23:47.376Z,22.33
2017-06-24T07:24:47.315Z,22.35
2017-06-24T07:25:47.401Z,22.38
2017-06-24T07:26:47.186Z,22.38
2017-06-24T07:27:47.127Z,22.36
2017-06-24T07:28:47.063Z,22.36
2017-06-24T07:29:46.999Z,22.36
2017-06-24T07:30:47.037Z,22.36
2017-06-24T07:31:46.874Z,22.35
2017-06-24T07:32:47.018Z,22.41
2017-06-24T07:33:46.744Z,22.35
2017-06-24T07:34:46.704Z,22.36
2017-06-24T07:35:46.876Z,22.35
2017-06-24T07:36:46.257Z,22.36
2017-06-24T07:37:46.191Z,22.36
2017-06-24T07:38:46.132Z,22.33
2017-06-24T07:39:46.370Z,22.32
2017-06-24T07:40:46.305Z,22.39
2017-06-24T07:41:46.244Z,22.36
2017-06-24T07:42:45.881Z,22.33
2017-06-24T07:43:45.833Z,22.26
2017-06-24T07:44:46.054Z,22.35
2017-06-24T07:45:45.994Z,22.35
2017-06-24T07:46:45.928Z,22.28
2017-06-24T07:47:45.869Z,22.35
2017-06-24T07:48:45.803Z,22.35
2017-06-24T07:49:45.739Z,22.33
2017-06-24T07:50:45.682Z,22.26
2017-06-24T07:51:45.611Z,22.23
2017-06-24T07:52:45.563Z,22.25
2017-06-24T07:53:45.501Z,22.26
2017-06-24T07:54:45.152Z,22.3
2017-06-24T07:55:45.360Z,22.25
2017-06-24T07:56:45.452Z,22.26
2017-06-24T07:57:45.237Z,22.26
2017-06-24T07:58:44.871Z,22.25
2017-06-24T07:59:45.107Z,22.23
2017-06-24T08:00:45.657Z,22.28
2017-06-24T08:01:44.988Z,22.25
2017-06-24T08:02:44.920Z,22.26
2017-06-24T08:03:44.858Z,22.3
2017-06-24T08:04:44.794Z,22.25
2017-06-24T08:05:44.829Z,22.18
2017-06-24T08:06:44.664Z,22.25
2017-06-24T08:07:44.604Z,22.3
2017-06-24T08:08:44.541Z,22.26
2017-06-24T08:09:44.179Z,22.25
2017-06-24T08:10:44.563Z,22.2
2017-06-24T08:11:44.348Z,22.28
2017-06-24T08:12:44.298Z,22.3
2017-06-24T08:13:44.225Z,22.23
2017-06-24T08:14:44.169Z,22.28
2017-06-24T08:15:44.102Z,22.25
2017-06-24T08:16:44.037Z,22.26
2017-06-24T08:17:43.972Z,22.18
2017-06-24T08:18:43.910Z,22.32
2017-06-24T08:19:43.848Z,22.25
2017-06-24T08:20:43.783Z,22.26
2017-06-24T08:21:43.721Z,22.22
2017-06-24T08:22:43.661Z,22.17
2017-06-24T08:23:43.303Z,22.3
2017-06-24T08:24:43.539Z,22.3
2017-06-24T08:25:43.178Z,22.2
2017-06-24T08:26:43.405Z,22.23
2017-06-24T08:27:43.342Z,22.18
2017-06-24T08:28:43.279Z,22.32
2017-06-24T08:29:43.221Z,22.14
2017-06-24T08:30:43.159Z,22.15
2017-06-24T08:31:42.788Z,22.28
2017-06-24T08:32:43.030Z,22.29
2017-06-24T08:33:42.964Z,22.22
2017-06-24T08:34:42.900Z,22.14
2017-06-24T08:35:42.841Z,22.17
2017-06-24T08:36:42.778Z,22.14
2017-06-24T08:37:42.710Z,22.15
2017-06-24T08:38:42.652Z,22.18
2017-06-24T08:39:42.583Z,22.28
2017-06-24T08:40:42.625Z,22.2
2017-06-24T08:41:42.460Z,22.2
2017-06-24T08:42:42.394Z,22.2
2017-06-24T08:43:42.330Z,22.25
2017-06-24T08:44:42.269Z,22.14
2017-06-24T08:45:42.205Z,22.17
2017-06-24T08:46:42.144Z,22.18
2017-06-24T08:47:41.776Z,22.17
2017-06-24T08:48:41.713Z,22.18
2017-06-24T08:49:41.653Z,22.18
2017-06-24T08:50:41.588Z,22.15
2017-06-24T08:51:41.827Z,22.2
2017-06-24T08:52:41.460Z,22.23
2017-06-24T08:53:41.701Z,22.14
2017-06-24T08:54:41.336Z,22.2
2017-06-24T08:55:41.424Z,22.18
2017-06-24T08:56:40.904Z,22.13
2017-06-24T08:57:41.450Z,22.17
2017-06-24T08:58:41.381Z,22.2
2017-06-24T08:59:41.325Z,22.17
2017-06-24T09:00:41.405Z,22.18
2017-06-24T09:01:41.195Z,22.22
2017-06-24T09:02:41.131Z,22.15
2017-06-24T09:03:41.071Z,22.17
2017-06-24T09:04:41.005Z,22.18
2017-06-24T09:05:40.953Z,22.17
2017-06-24T09:06:40.585Z,22.14
2017-06-24T09:07:40.521Z,22.13
2017-06-24T09:08:40.753Z,22.14
2017-06-24T09:09:40.691Z,22.22
2017-06-24T09:10:40.627Z,22.2
2017-06-24T09:11:40.275Z,22.15
2017-06-24T09:12:40.509Z,22.17
2017-06-24T09:13:39.834Z,22.1
2017-06-24T09:14:40.377Z,22.17
2017-06-24T09:15:40.308Z,22.13
2017-06-24T09:16:40.248Z,22.15
2017-06-24T09:17:39.882Z,22.25
2017-06-24T09:18:39.822Z,22.15
2017-06-24T09:19:40.055Z,22.17
2017-06-24T09:20:39.991Z,22.13
2017-06-24T09:21:39.935Z,22.15
2017-06-24T09:22:39.870Z,22.17
2017-06-24T09:23:39.201Z,22.15
2017-06-24T09:24:39.742Z,22.2
2017-06-24T09:25:39.679Z,22.15
2017-06-24T09:26:39.617Z,22.17
2017-06-24T09:27:39.550Z,22.15
2017-06-24T09:28:39.491Z,22.25
2017-06-24T09:29:39.427Z,22.17
2017-06-24T09:30:39.362Z,22.15
2017-06-24T09:31:39.304Z,22.2
2017-06-24T09:32:39.238Z,22.13
2017-06-24T09:33:39.175Z,22.22
2017-06-24T09:34:38.811Z,22.14
2017-06-24T09:35:38.850Z,22.11
2017-06-24T09:36:38.985Z,22.14
2017-06-24T09:37:38.920Z,22.2
2017-06-24T09:38:38.859Z,22.11
2017-06-24T09:39:38.490Z,22.15
2017-06-24T09:40:38.833Z,22.11
2017-06-24T09:41:38.671Z,22.15
2017-06-24T09:42:38.606Z,22.14
2017-06-24T09:43:38.549Z,22.15
2017-06-24T09:44:38.477Z,22.13
2017-06-24T09:45:38.421Z,22.11
2017-06-24T09:46:38.360Z,22.15
2017-06-24T09:47:38.291Z,22.11
2017-06-24T09:48:38.225Z,22.14
2017-06-24T09:49:38.164Z,22.07
2017-06-24T09:50:38.103Z,22.11
2017-06-24T09:51:38.073Z,22.14
2017-06-24T09:52:37.970Z,22.06
2017-06-24T09:53:37.609Z,22.08
2017-06-24T09:54:37.555Z,22.14
2017-06-24T09:55:37.787Z,22.14
2017-06-24T09:56:37.719Z,22.18
2017-06-24T09:57:37.657Z,22.14
2017-06-24T09:58:37.593Z,22.04
2017-06-24T09:59:37.535Z,22.04
2017-06-24T10:00:37.469Z,22.1
2017-06-24T10:01:37.504Z,22.13
2017-06-24T10:02:37.346Z,22.1
2017-06-24T10:03:37.302Z,22.06
2017-06-24T10:04:37.228Z,22.07
2017-06-24T10:05:37.154Z,22.08
2017-06-24T10:06:36.785Z,21.99
2017-06-24T10:07:36.721Z,22.08
2017-06-24T10:08:36.966Z,22.11
2017-06-24T10:09:36.897Z,22.07
2017-06-24T10:10:36.935Z,22.06
2017-06-24T10:11:36.805Z,22.06
2017-06-24T10:12:36.714Z,22
2017-06-24T10:13:36.367Z,22.08
2017-06-24T10:14:36.281Z,22.15
2017-06-24T10:15:36.665Z,22.1
2017-06-24T10:16:36.458Z,22.11
2017-06-24T10:17:36.395Z,21.99
2017-06-24T10:18:36.330Z,22.06
2017-06-24T10:19:36.268Z,22.06
2017-06-24T10:20:36.312Z,22.07
2017-06-24T10:21:36.144Z,22.08
2017-06-24T10:22:36.078Z,22.08
2017-06-24T10:23:36.017Z,22
2017-06-24T10:24:35.646Z,22.1
2017-06-24T10:25:35.889Z,22.1
2017-06-24T10:26:35.526Z,22.07
2017-06-24T10:27:35.762Z,22.11
2017-06-24T10:28:35.708Z,22.11
2017-06-24T10:29:35.641Z,22.07
2017-06-24T10:30:35.270Z,22
2017-06-24T10:31:35.505Z,22.1
2017-06-24T10:32:35.447Z,22.04
2017-06-24T10:33:35.383Z,22
2017-06-24T10:34:35.321Z,22.11
2017-06-24T10:35:35.269Z,22.1
2017-06-24T10:36:35.193Z,22.08
2017-06-24T10:37:35.126Z,22.06
2017-06-24T10:38:35.066Z,22.11
2017-06-24T10:39:35.001Z,22.08
2017-06-24T10:40:34.942Z,22.1
2017-06-24T10:41:34.975Z,22.11
2017-06-24T10:42:34.511Z,22.06
2017-06-24T10:43:34.748Z,22.08
2017-06-24T10:44:34.685Z,22.13
2017-06-24T10:45:34.623Z,22.08
2017-06-24T10:46:34.667Z,22.07
2017-06-24T10:47:34.494Z,22.08
2017-06-24T10:48:34.431Z,22.11
2017-06-24T10:49:34.372Z,21.99
2017-06-24T10:50:34.024Z,22.08
2017-06-24T10:51:34.246Z,22.11
2017-06-24T10:52:34.183Z,22.1
2017-06-24T10:53:34.119Z,22.08
2017-06-24T10:54:34.055Z,22.1
2017-06-24T10:55:33.992Z,22.07
2017-06-24T10:56:33.924Z,22.08
2017-06-24T10:57:33.873Z,22.08
2017-06-24T10:58:33.804Z,22.04
2017-06-24T10:59:33.743Z,22.08
2017-06-24T11:00:33.684Z,22.08
2017-06-24T11:01:33.617Z,22.08
2017-06-24T11:02:33.249Z,22.14
2017-06-24T11:03:33.482Z,21.98
2017-06-24T11:04:33.421Z,22.07
2017-06-24T11:05:33.065Z,22.08
2017-06-24T11:06:33.298Z,22.08
2017-06-24T11:07:33.381Z,22.08
2017-06-24T11:08:33.173Z,22.02
2017-06-24T11:09:33.308Z,22.08
2017-06-24T11:10:33.049Z,22.02
2017-06-24T11:11:32.980Z,22.07
2017-06-24T11:12:33.067Z,22.02
2017-06-24T11:13:32.863Z,22.13
2017-06-24T11:14:32.796Z,22.11
2017-06-24T11:15:32.445Z,22.06
2017-06-24T11:16:32.671Z,22.06
2017-06-24T11:17:32.852Z,22.07
2017-06-24T11:18:32.541Z,22.08
2017-06-24T11:19:32.478Z,22.02
2017-06-24T11:20:32.411Z,22.07
2017-06-24T11:21:32.350Z,22.1
2017-06-24T11:22:32.290Z,22.11
2017-06-24T11:23:32.222Z,22.06
2017-06-24T11:24:32.160Z,22.07
2017-06-24T11:25:32.198Z,22.06
2017-06-24T11:26:32.037Z,22.06
2017-06-24T11:27:31.971Z,22.06
2017-06-24T11:28:31.304Z,22.1
2017-06-24T11:29:31.849Z,22.06
2017-06-24T11:30:31.885Z,21.99
2017-06-24T11:31:31.718Z,21.98
2017-06-24T11:32:31.652Z,22.02
2017-06-24T11:33:31.621Z,22.07
2017-06-24T11:34:31.530Z,22.08
2017-06-24T11:35:31.464Z,22.07
2017-06-24T11:36:31.103Z,22.02
2017-06-24T11:37:31.332Z,22.08
2017-06-24T11:38:30.988Z,22.06
2017-06-24T11:39:31.205Z,22.08
2017-06-24T11:40:31.144Z,21.99
2017-06-24T11:41:31.113Z,22
2017-06-24T11:42:31.021Z,22.07
2017-06-24T11:43:30.957Z,21.99
2017-06-24T11:44:30.890Z,21.99
2017-06-24T11:45:31.132Z,22
2017-06-24T11:46:30.775Z,22.06
2017-06-24T11:47:30.703Z,21.98
2017-06-24T11:48:30.338Z,22.08
2017-06-24T11:49:30.580Z,22.02
2017-06-24T11:51:30.455Z,22.07
2017-06-24T11:52:30.386Z,22.04
2017-06-24T11:53:30.322Z,22.06
2017-06-24T11:54:30.262Z,22
2017-06-24T11:55:30.201Z,22.04
2017-06-24T11:56:30.139Z,22.07
2017-06-24T11:57:30.072Z,22.06
2017-06-24T11:58:30.010Z,22.07
2017-06-24T11:59:29.943Z,22.02
2017-06-24T12:00:29.881Z,22.04
2017-06-24T12:01:29.827Z,22.08
2017-06-24T12:02:29.757Z,22.04
2017-06-24T12:03:29.694Z,21.99
2017-06-24T12:04:29.631Z,22.11
2017-06-24T12:05:29.571Z,22.07
2017-06-24T12:06:29.508Z,22.04
2017-06-24T12:07:29.438Z,21.99
2017-06-24T12:08:29.379Z,22.11
2017-06-24T12:09:29.311Z,22.04
2017-06-24T12:10:28.952Z,22.04
2017-06-24T12:11:29.338Z,22.07
2017-06-24T12:12:29.123Z,22.02
2017-06-24T12:13:29.091Z,22.02
2017-06-24T12:14:28.997Z,22
2017-06-24T12:15:28.932Z,22
2017-06-24T12:16:28.881Z,22.07
2017-06-24T12:17:28.809Z,22.07
2017-06-24T12:18:28.744Z,22.04
2017-06-24T12:19:28.678Z,22.02
2017-06-24T12:20:28.968Z,22.06
2017-06-24T12:21:28.552Z,22.06
2017-06-24T12:22:28.492Z,22.06
2017-06-24T12:23:28.428Z,22.07
2017-06-24T12:24:28.362Z,22.06
2017-06-24T12:25:28.402Z,22.1
2017-06-24T12:26:28.250Z,22.07
2017-06-24T12:27:28.178Z,22.14
2017-06-24T12:28:28.111Z,21.98
2017-06-24T12:29:28.046Z,22.06
2017-06-24T12:30:28.284Z,22
2017-06-24T12:31:27.920Z,22.06
2017-06-24T12:32:27.858Z,22.07
2017-06-24T12:33:27.798Z,22.02
2017-06-24T12:34:27.734Z,22.06
2017-06-24T12:35:27.667Z,22.07
2017-06-24T12:36:27.605Z,22.04
2017-06-24T12:37:27.542Z,22.06
2017-06-24T12:38:27.476Z,22.08
2017-06-24T12:39:27.417Z,22.11
2017-06-24T12:40:27.357Z,22.1
2017-06-24T12:41:27.291Z,22.07
2017-06-24T12:42:26.924Z,22.04
2017-06-24T12:43:27.167Z,22.11
2017-06-24T12:44:27.102Z,22.11
2017-06-24T12:45:27.037Z,22.1
2017-06-24T12:46:26.976Z,22.11
2017-06-24T12:47:26.912Z,22.08
2017-06-24T12:48:26.850Z,22.08
2017-06-24T12:49:26.818Z,22.15
2017-06-24T12:50:26.428Z,22.08
2017-06-24T12:51:26.671Z,22.08
2017-06-24T12:52:26.292Z,22.13
2017-06-24T12:53:26.535Z,22.1
2017-06-24T12:54:26.466Z,22.1
2017-06-24T12:55:26.442Z,22.08
2017-06-24T12:56:26.340Z,22.14
2017-06-24T12:57:25.977Z,22.07